Time;durP1;ratioP1;P1;durP2;ratioP2;P2;SDS_P1;SDS_P2;PMS_P1;PMS_P2;Temp;Humidity;BMP_temperature;BMP_pressure;BME280_temperature;BME280_humidity;BME280_pressure;Samples;Min_cycle;Max_cycle;Signal;HPM_P1;HPM_P2
2022/12/07 00:01:18;;;;;;;43.63;26.13;;;4.60;99.90;;;;;;5039811;28;20312;-55
2022/12/07 00:03:47;;;;;;;43.40;26.53;;;4.60;99.90;;;;;;5031583;28;20268;-56
2022/12/07 00:06:16;;;;;;;41.07;25.37;;;4.70;99.90;;;;;;5031184;28;20233;-53
2022/12/07 00:08:43;;;;;;;45.80;26.23;;;4.70;99.90;;;;;;5031609;28;20202;-57
2022/12/07 00:11:12;;;;;;;46.33;27.20;;;4.70;99.90;;;;;;5031329;28;20583;-56
2022/12/07 00:13:40;;;;;;;41.23;25.23;;;4.70;99.90;;;;;;5048891;28;20208;-55
2022/12/07 00:16:11;;;;;;;42.83;25.70;;;4.70;99.90;;;;;;5051195;28;20237;-56
2022/12/07 00:18:39;;;;;;;41.60;25.77;;;4.70;99.90;;;;;;5053421;28;20213;-51
2022/12/07 00:21:07;;;;;;;39.07;24.20;;;4.70;99.90;;;;;;5054965;28;20261;-52
2022/12/07 00:23:34;;;;;;;43.80;24.97;;;4.70;99.90;;;;;;5054852;28;20228;-51
2022/12/07 00:26:05;;;;;;;38.77;25.17;;;4.70;99.90;;;;;;5054508;28;20238;-56
2022/12/07 00:28:33;;;;;;;38.73;23.43;;;4.70;99.90;;;;;;5055315;28;20278;-51
2022/12/07 00:31:02;;;;;;;40.73;24.37;;;4.70;99.90;;;;;;5054757;28;20214;-55
2022/12/07 00:33:30;;;;;;;36.63;23.10;;;4.80;99.90;;;;;;5054931;28;20205;-57
2022/12/07 00:35:57;;;;;;;37.33;23.70;;;4.70;99.90;;;;;;5054347;28;20233;-55
2022/12/07 00:38:24;;;;;;;39.30;24.23;;;4.70;99.90;;;;;;5054608;28;20299;-55
2022/12/07 00:40:56;;;;;;;38.83;24.20;;;4.70;99.90;;;;;;5054763;28;20323;-56
2022/12/07 00:43:22;;;;;;;41.10;24.83;;;4.70;99.90;;;;;;5054618;28;20225;-57
2022/12/07 00:45:49;;;;;;;40.23;25.23;;;4.70;99.90;;;;;;5054491;28;20280;-58
2022/12/07 00:48:15;;;;;;;38.47;24.03;;;4.80;99.90;;;;;;5054507;28;20213;-52
2022/12/07 00:50:44;;;;;;;37.60;23.07;;;4.80;99.90;;;;;;5054515;28;20206;-54
2022/12/07 00:53:10;;;;;;;39.97;23.67;;;4.80;99.90;;;;;;5054447;28;20663;-53
2022/12/07 00:55:37;;;;;;;39.07;23.83;;;4.80;99.90;;;;;;5046273;28;20674;-55
2022/12/07 00:58:04;;;;;;;37.60;24.90;;;4.70;99.90;;;;;;5046118;28;20198;-56
2022/12/07 01:00:31;;;;;;;42.33;25.77;;;4.80;99.90;;;;;;5045783;28;20209;-56
2022/12/07 01:02:58;;;;;;;40.27;25.67;;;4.80;99.90;;;;;;5045895;28;20718;-55
2022/12/07 01:05:24;;;;;;;42.87;26.03;;;4.80;99.90;;;;;;5053972;28;20241;-55
2022/12/07 01:07:52;;;;;;;42.50;26.13;;;4.80;99.90;;;;;;5054200;28;20208;-55
2022/12/07 01:10:19;;;;;;;45.23;27.37;;;4.70;99.90;;;;;;5054389;28;20216;-53
2022/12/07 01:12:46;;;;;;;52.23;29.83;;;4.70;99.90;;;;;;5054062;28;20206;-55
2022/12/07 01:15:12;;;;;;;50.50;30.27;;;4.80;99.90;;;;;;5054046;28;20238;-56
2022/12/07 01:17:39;;;;;;;49.53;29.23;;;4.80;99.90;;;;;;5053793;28;20209;-54
2022/12/07 01:20:07;;;;;;;46.97;28.83;;;4.80;99.90;;;;;;5053985;28;20215;-55
2022/12/07 01:22:37;;;;;;;49.70;28.57;;;4.80;99.90;;;;;;5053724;28;20598;-57
2022/12/07 01:25:06;;;;;;;53.10;29.60;;;4.80;99.90;;;;;;5054466;28;20262;-57
2022/12/07 01:27:33;;;;;;;51.83;30.90;;;4.90;99.90;;;;;;5053854;28;20206;-50
2022/12/07 01:30:00;;;;;;;54.67;29.37;;;4.90;99.90;;;;;;5054204;28;20214;-58
2022/12/07 01:32:27;;;;;;;55.27;30.07;;;4.90;99.90;;;;;;5053739;28;20198;-55
2022/12/07 01:34:54;;;;;;;53.50;30.33;;;4.90;99.90;;;;;;5051390;28;20210;-54
2022/12/07 01:37:21;;;;;;;60.77;31.50;;;4.90;99.90;;;;;;5041697;28;20226;-56
2022/12/07 01:39:49;;;;;;;56.17;30.47;;;4.90;99.90;;;;;;5044022;28;20209;-54
2022/12/07 01:42:17;;;;;;;59.20;32.27;;;4.90;99.90;;;;;;5045486;28;20261;-56
2022/12/07 01:45:37;;;;;;;51.87;30.47;;;4.90;99.90;;;;;;5053727;28;20204;-53
2022/12/07 01:48:06;;;;;;;63.10;31.17;;;4.90;99.90;;;;;;5053395;28;20625;-53
2022/12/07 01:50:32;;;;;;;56.10;31.50;;;4.90;99.90;;;;;;5053672;28;20305;-56
2022/12/07 01:53:02;;;;;;;61.17;32.03;;;4.90;99.90;;;;;;5053342;28;20209;-56
2022/12/07 01:55:30;;;;;;;53.33;30.33;;;4.90;99.90;;;;;;5053194;28;20282;-56
2022/12/07 01:57:58;;;;;;;55.77;32.43;;;4.90;99.90;;;;;;5053245;28;20282;-57
2022/12/07 02:00:25;;;;;;;57.73;30.70;;;4.90;99.90;;;;;;5053299;28;20282;-57
2022/12/07 02:02:54;;;;;;;58.27;31.80;;;4.90;99.90;;;;;;5053166;28;20236;-56
2022/12/07 02:05:22;;;;;;;51.07;28.30;;;4.90;99.90;;;;;;5053033;28;20596;-53
2022/12/07 02:07:51;;;;;;;54.03;30.83;;;5.00;99.90;;;;;;5052691;28;20737;-56
2022/12/07 02:10:21;;;;;;;50.47;29.63;;;4.90;99.90;;;;;;5053270;28;20210;-55
2022/12/07 02:12:50;;;;;;;50.90;29.90;;;4.90;99.90;;;;;;5052956;28;20411;-56
2022/12/07 02:15:20;;;;;;;48.77;29.03;;;4.90;99.90;;;;;;5052880;28;20671;-55
2022/12/07 02:17:56;;;;;;;52.47;29.70;;;4.90;99.90;;;;;;5052614;28;20202;-54
2022/12/07 02:20:28;;;;;;;52.20;29.03;;;4.90;99.90;;;;;;5052762;28;20251;-52
2022/12/07 02:23:28;;;;;;;55.33;29.00;;;4.90;99.90;;;;;;5052864;28;20225;-57
2022/12/07 02:26:36;;;;;;;48.50;28.03;;;4.80;99.90;;;;;;5052507;28;20232;-54
2022/12/07 02:29:18;;;;;;;51.70;28.43;;;4.80;99.90;;;;;;5052547;28;20205;-54
2022/12/07 02:31:49;;;;;;;54.73;28.60;;;4.90;99.90;;;;;;5052900;28;20212;-56
2022/12/07 02:34:22;;;;;;;50.40;28.47;;;4.90;99.90;;;;;;5052761;28;20213;-56
2022/12/07 02:36:54;;;;;;;50.93;27.93;;;4.90;99.90;;;;;;5052054;28;20746;-55
2022/12/07 02:39:29;;;;;;;50.20;28.90;;;4.90;99.90;;;;;;5052153;28;20578;-54
2022/12/07 02:42:02;;;;;;;54.37;29.50;;;4.90;99.90;;;;;;5051920;28;20736;-58
2022/12/07 02:44:32;;;;;;;58.30;29.37;;;4.90;99.90;;;;;;5052467;28;20199;-55
2022/12/07 02:47:03;;;;;;;55.90;28.30;;;4.90;99.90;;;;;;5051976;28;20228;-56
2022/12/07 02:49:30;;;;;;;48.07;27.37;;;4.90;99.90;;;;;;5052160;28;20213;-53
2022/12/07 02:51:57;;;;;;;51.73;27.87;;;4.90;99.90;;;;;;5052292;28;20206;-56
2022/12/07 02:54:24;;;;;;;52.43;29.00;;;4.90;99.90;;;;;;5051976;28;20262;-56
2022/12/07 02:56:55;;;;;;;48.30;27.73;;;4.90;99.90;;;;;;5051897;28;20718;-53
2022/12/07 02:59:33;;;;;;;50.83;26.97;;;4.90;99.90;;;;;;5051190;28;20267;-49
2022/12/07 03:02:16;;;;;;;50.33;28.53;;;4.90;99.90;;;;;;5044103;28;20205;-52
2022/12/07 03:04:52;;;;;;;49.50;26.23;;;4.90;99.90;;;;;;5052207;28;20205;-51
2022/12/07 03:07:26;;;;;;;45.20;27.23;;;4.80;99.90;;;;;;5051570;28;20657;-51
2022/12/07 03:10:02;;;;;;;49.43;27.80;;;4.80;99.90;;;;;;5051931;28;20215;-51
2022/12/07 03:12:33;;;;;;;54.67;29.53;;;4.80;99.90;;;;;;5051863;28;20289;-52
2022/12/07 03:15:04;;;;;;;49.30;27.30;;;4.80;99.90;;;;;;5044012;28;20209;-51
2022/12/07 03:17:37;;;;;;;45.80;27.43;;;4.80;99.90;;;;;;5051947;28;20208;-48
2022/12/07 03:20:08;;;;;;;46.43;27.30;;;4.80;99.90;;;;;;5051717;28;20208;-53
2022/12/07 03:22:38;;;;;;;47.27;27.67;;;4.70;99.90;;;;;;5051617;28;20228;-50
2022/12/07 03:25:09;;;;;;;48.27;27.03;;;4.70;99.90;;;;;;5051635;28;20201;-53
2022/12/07 03:27:41;;;;;;;46.47;25.07;;;4.70;99.90;;;;;;5051835;28;20213;-51
2022/12/07 03:30:13;;;;;;;43.40;25.13;;;4.60;99.90;;;;;;5051747;28;20212;-54
2022/12/07 03:32:46;;;;;;;49.63;25.27;;;4.50;99.90;;;;;;5051870;28;20249;-55
2022/12/07 03:35:18;;;;;;;38.90;22.33;;;4.50;99.90;;;;;;5051591;28;20212;-52
2022/12/07 03:37:49;;;;;;;38.93;22.17;;;4.50;99.90;;;;;;5050906;28;20212;-56
2022/12/07 03:40:21;;;;;;;38.53;23.63;;;4.50;99.90;;;;;;5050861;28;20205;-55
2022/12/07 03:42:48;;;;;;;41.30;23.53;;;4.40;99.90;;;;;;5050720;28;20230;-55
2022/12/07 03:45:16;;;;;;;50.33;25.57;;;4.40;99.90;;;;;;5050369;28;20335;-52
2022/12/07 03:47:50;;;;;;;43.10;24.53;;;4.40;99.90;;;;;;5050602;28;20212;-54
2022/12/07 03:50:25;;;;;;;47.23;25.47;;;4.30;99.90;;;;;;5050695;28;20301;-58
2022/12/07 03:52:56;;;;;;;43.93;24.83;;;4.40;99.90;;;;;;5049095;28;20204;-58
2022/12/07 03:55:28;;;;;;;44.73;23.33;;;4.40;99.90;;;;;;5042401;28;20759;-54
2022/12/07 03:57:59;;;;;;;44.40;23.63;;;4.40;99.90;;;;;;5034119;28;20206;-56
2022/12/07 04:00:26;;;;;;;39.90;24.70;;;4.40;99.90;;;;;;5034173;28;20270;-55
2022/12/07 04:02:55;;;;;;;40.53;23.00;;;4.40;99.90;;;;;;5034239;28;20233;-56
2022/12/07 04:05:22;;;;;;;46.67;23.43;;;4.30;99.90;;;;;;5034085;28;20212;-57
2022/12/07 04:07:49;;;;;;;40.47;22.53;;;4.20;99.90;;;;;;5034214;28;20210;-52
2022/12/07 04:10:16;;;;;;;40.97;22.47;;;4.20;99.90;;;;;;5034025;28;20271;-58
2022/12/07 04:12:42;;;;;;;39.37;22.57;;;4.20;99.90;;;;;;5043383;28;20257;-56
2022/12/07 04:15:10;;;;;;;41.77;23.30;;;4.30;99.90;;;;;;5053647;28;20204;-53
2022/12/07 04:17:36;;;;;;;41.03;22.73;;;4.30;99.90;;;;;;5053822;28;20208;-58
2022/12/07 04:20:06;;;;;;;45.33;23.33;;;4.30;99.90;;;;;;5054063;28;20259;-53
2022/12/07 04:22:32;;;;;;;40.53;23.20;;;4.30;99.90;;;;;;5053840;28;20274;-52
2022/12/07 04:24:59;;;;;;;46.50;25.13;;;4.30;99.90;;;;;;5053895;28;20274;-53
2022/12/07 04:27:26;;;;;;;44.53;23.47;;;4.30;99.90;;;;;;5053324;28;20235;-56
2022/12/07 04:29:52;;;;;;;43.30;24.27;;;4.30;99.90;;;;;;5053832;28;20214;-55
2022/12/07 04:32:19;;;;;;;46.10;25.20;;;4.30;99.90;;;;;;5053681;28;20266;-54
2022/12/07 04:34:46;;;;;;;44.27;23.87;;;4.20;99.90;;;;;;5053793;28;20212;-54
2022/12/07 04:37:14;;;;;;;45.53;23.50;;;4.20;99.90;;;;;;5017010;28;1046893;-55
2022/12/07 04:39:41;;;;;;;45.57;24.37;;;4.30;99.90;;;;;;5054843;28;20230;-56
2022/12/07 04:42:08;;;;;;;43.67;24.00;;;4.20;99.90;;;;;;5054497;28;20216;-55
2022/12/07 04:44:35;;;;;;;46.23;24.63;;;4.30;99.90;;;;;;5054693;28;20657;-56
2022/12/07 04:47:01;;;;;;;44.53;23.00;;;4.20;99.90;;;;;;5054281;28;20722;-54
2022/12/07 04:49:28;;;;;;;38.90;22.50;;;4.20;99.90;;;;;;5054893;28;20239;-56
2022/12/07 04:51:55;;;;;;;45.40;24.47;;;4.20;99.90;;;;;;5054534;28;20205;-53
2022/12/07 04:54:23;;;;;;;39.63;21.67;;;4.20;99.90;;;;;;5054526;28;20687;-54
2022/12/07 04:56:50;;;;;;;41.47;22.07;;;4.20;99.90;;;;;;5054148;28;20232;-52
2022/12/07 04:59:17;;;;;;;42.03;22.23;;;4.10;99.90;;;;;;5054846;28;20218;-53
2022/12/07 05:01:44;;;;;;;45.27;22.70;;;4.10;99.90;;;;;;5054430;28;20208;-53
2022/12/07 05:04:11;;;;;;;48.33;23.10;;;4.10;99.90;;;;;;5053775;28;20228;-56
2022/12/07 05:06:38;;;;;;;42.60;20.53;;;4.10;99.90;;;;;;5054159;28;20245;-52
2022/12/07 05:09:05;;;;;;;45.23;23.37;;;4.10;99.90;;;;;;5054068;28;20696;-52
2022/12/07 05:11:39;;;;;;;41.17;23.23;;;4.10;99.90;;;;;;5054196;28;20215;-56
2022/12/07 05:14:08;;;;;;;41.70;22.20;;;4.10;99.90;;;;;;5046805;28;20654;-56
2022/12/07 05:16:34;;;;;;;40.27;21.47;;;4.10;99.90;;;;;;5053814;28;20236;-56
2022/12/07 05:19:01;;;;;;;41.67;22.13;;;4.10;99.90;;;;;;5053967;28;20266;-54
2022/12/07 05:21:27;;;;;;;36.53;20.50;;;4.20;99.90;;;;;;5053880;28;20211;-58
2022/12/07 05:23:54;;;;;;;40.63;20.87;;;4.10;99.90;;;;;;5053599;28;20225;-56
2022/12/07 05:26:21;;;;;;;36.27;19.77;;;4.10;99.90;;;;;;5053803;28;20224;-54
2022/12/07 05:28:52;;;;;;;35.20;20.93;;;4.00;99.90;;;;;;5054122;28;20208;-56
2022/12/07 05:31:19;;;;;;;40.23;20.13;;;4.00;99.90;;;;;;5054054;28;20214;-54
2022/12/07 05:33:46;;;;;;;38.87;20.03;;;4.10;99.90;;;;;;5053661;28;20212;-59
2022/12/07 05:36:12;;;;;;;36.80;20.17;;;4.00;99.90;;;;;;5053629;28;20281;-55
2022/12/07 05:38:39;;;;;;;41.33;19.80;;;4.00;99.90;;;;;;5053568;28;20215;-51
2022/12/07 05:41:07;;;;;;;40.37;20.50;;;4.00;99.90;;;;;;5053721;28;20690;-53
2022/12/07 05:43:34;;;;;;;36.00;20.50;;;4.00;99.90;;;;;;5053456;28;20222;-54
2022/12/07 05:46:02;;;;;;;39.13;21.63;;;4.00;99.90;;;;;;5053189;28;20281;-55
2022/12/07 05:48:28;;;;;;;42.33;20.70;;;4.00;99.90;;;;;;5053474;28;20220;-54
2022/12/07 05:50:55;;;;;;;41.73;21.43;;;3.90;99.90;;;;;;5051837;28;20223;-53
2022/12/07 05:53:22;;;;;;;40.30;22.10;;;4.00;99.90;;;;;;5052394;28;20208;-55
2022/12/07 05:55:48;;;;;;;44.60;22.93;;;3.90;99.90;;;;;;5053052;28;20261;-53
2022/12/07 06:00:59;;;;;;;37.33;21.30;;;3.90;99.90;;;;;;5052662;28;20669;-51
2022/12/07 06:03:27;;;;;;;44.10;22.13;;;3.90;99.90;;;;;;5052744;28;20368;-53
2022/12/07 06:05:54;;;;;;;38.37;21.87;;;3.90;99.90;;;;;;5052287;28;20282;-55
2022/12/07 06:08:21;;;;;;;45.40;23.50;;;3.90;99.90;;;;;;5053031;28;20710;-55
2022/12/07 06:12:33;;;;;;;40.70;20.93;;;3.90;99.90;;;;;;5052643;28;20213;-53
2022/12/07 06:13:35;;;;;;;41.27;22.23;;;3.90;99.90;;;;;;5052529;28;20207;-55
2022/12/07 06:16:01;;;;;;;36.87;21.03;;;3.90;99.90;;;;;;5051065;28;20231;-53
2022/12/07 06:18:29;;;;;;;38.17;20.70;;;3.90;99.90;;;;;;5053179;28;20620;-55
2022/12/07 06:20:56;;;;;;;39.70;21.67;;;3.90;99.90;;;;;;5052198;28;20733;-55
2022/12/07 06:23:23;;;;;;;34.53;19.97;;;3.90;99.90;;;;;;5052557;28;20237;-60
2022/12/07 06:25:49;;;;;;;37.60;20.87;;;3.90;99.90;;;;;;5052042;28;20228;-57
2022/12/07 06:28:16;;;;;;;38.03;19.73;;;3.90;99.90;;;;;;5052019;28;20264;-54
2022/12/07 06:30:43;;;;;;;35.40;20.07;;;3.90;99.90;;;;;;5051356;28;20211;-56
2022/12/07 06:33:09;;;;;;;37.47;19.70;;;4.00;99.90;;;;;;5040289;28;20195;-58
2022/12/07 06:35:37;;;;;;;38.03;18.87;;;3.90;99.90;;;;;;5040627;28;20273;-54
2022/12/07 06:38:04;;;;;;;33.20;18.93;;;3.90;99.90;;;;;;5050258;28;20210;-57
2022/12/07 06:40:31;;;;;;;34.13;18.83;;;3.80;99.90;;;;;;5052296;28;20564;-59
2022/12/07 06:42:58;;;;;;;39.63;19.37;;;3.90;99.90;;;;;;5051374;28;20195;-60
2022/12/07 06:45:25;;;;;;;39.80;19.90;;;3.90;99.90;;;;;;5052132;28;20220;-55
2022/12/07 06:47:51;;;;;;;39.70;19.60;;;3.90;99.90;;;;;;5043060;28;20772;-53
2022/12/07 06:50:18;;;;;;;34.47;18.80;;;3.80;99.90;;;;;;5043554;28;20212;-57
2022/12/07 06:52:46;;;;;;;34.03;18.07;;;3.80;99.90;;;;;;5051708;28;20252;-52
2022/12/07 06:55:12;;;;;;;29.33;18.10;;;3.80;99.90;;;;;;5051409;28;20195;-59
2022/12/07 06:57:39;;;;;;;32.77;17.60;;;3.80;99.90;;;;;;5051800;28;20251;-55
2022/12/07 07:00:07;;;;;;;32.50;18.20;;;3.90;99.90;;;;;;5043337;28;20214;-57
2022/12/07 07:02:34;;;;;;;35.87;17.00;;;3.90;99.90;;;;;;5049773;28;20204;-58
2022/12/07 07:05:00;;;;;;;33.63;17.97;;;3.90;99.90;;;;;;5051200;28;20222;-57
2022/12/07 07:07:27;;;;;;;31.30;17.43;;;3.90;99.90;;;;;;5051554;28;20281;-56
2022/12/07 07:09:55;;;;;;;30.83;17.27;;;3.90;99.90;;;;;;5042786;28;20298;-60
2022/12/07 07:12:22;;;;;;;28.10;15.97;;;3.90;99.90;;;;;;5043360;28;20203;-58
2022/12/07 07:14:49;;;;;;;30.17;16.40;;;3.80;99.90;;;;;;5049705;28;20212;-58
2022/12/07 07:17:16;;;;;;;28.63;15.60;;;3.80;99.90;;;;;;5050960;28;20225;-58
2022/12/07 07:19:42;;;;;;;31.87;15.00;;;3.70;99.90;;;;;;5051575;28;20294;-60
2022/12/07 07:22:09;;;;;;;30.20;15.93;;;3.80;99.90;;;;;;5050729;28;20234;-58
2022/12/07 07:24:36;;;;;;;26.70;14.60;;;3.70;99.90;;;;;;5050782;28;20228;-59
2022/12/07 07:27:04;;;;;;;29.03;15.70;;;3.80;99.90;;;;;;5050488;28;20559;-60
2022/12/07 07:29:30;;;;;;;27.40;14.27;;;3.70;99.90;;;;;;5050833;28;20207;-59
2022/12/07 07:31:57;;;;;;;23.33;14.90;;;3.70;99.90;;;;;;5050645;28;20203;-61
2022/12/07 07:34:24;;;;;;;28.23;15.50;;;3.70;99.90;;;;;;5051045;28;20197;-60
2022/12/07 07:36:50;;;;;;;28.57;16.07;;;3.70;99.90;;;;;;5039998;28;20270;-61
2022/12/07 07:39:17;;;;;;;28.03;15.13;;;3.70;99.90;;;;;;5038609;28;20692;-59
2022/12/07 07:41:44;;;;;;;22.03;14.33;;;3.70;99.90;;;;;;5040413;28;20674;-61
2022/12/07 07:44:12;;;;;;;24.70;13.90;;;3.70;99.90;;;;;;5044860;28;20355;-56
2022/12/07 07:46:38;;;;;;;32.67;15.10;;;3.70;99.90;;;;;;5039545;28;20227;-56
2022/12/07 07:49:05;;;;;;;28.53;15.10;;;3.70;99.90;;;;;;5042018;28;20212;-58
2022/12/07 07:51:32;;;;;;;23.20;14.90;;;3.70;99.90;;;;;;5050886;28;20203;-59
2022/12/07 07:53:59;;;;;;;28.60;14.53;;;3.70;99.90;;;;;;5041255;28;20204;-56
2022/12/07 07:56:25;;;;;;;27.13;15.87;;;3.70;99.90;;;;;;5050541;28;20756;-60
2022/12/07 07:58:52;;;;;;;29.27;15.30;;;3.70;99.90;;;;;;5050796;28;20674;-54
2022/12/07 08:01:20;;;;;;;26.03;14.17;;;3.70;99.90;;;;;;5048786;28;20210;-61
2022/12/07 08:03:47;;;;;;;26.33;14.33;;;3.70;99.90;;;;;;5048722;28;20254;-57
2022/12/07 08:06:14;;;;;;;26.17;14.77;;;3.60;99.90;;;;;;5037924;28;20223;-55
2022/12/07 08:08:41;;;;;;;26.50;14.80;;;3.60;99.90;;;;;;5040385;28;20208;-57
2022/12/07 08:11:09;;;;;;;26.53;14.13;;;3.70;99.90;;;;;;5041771;28;20202;-58
2022/12/07 08:13:37;;;;;;;25.27;15.30;;;3.70;99.90;;;;;;5050544;28;20196;-58
2022/12/07 08:16:06;;;;;;;28.23;15.60;;;3.70;99.90;;;;;;5067887;28;20238;-61
2022/12/07 08:18:36;;;;;;;26.00;13.70;;;3.70;99.90;;;;;;5054765;28;20667;-60
2022/12/07 08:21:03;;;;;;;24.60;14.73;;;3.70;99.90;;;;;;5050644;28;20311;-59
2022/12/07 08:23:30;;;;;;;31.03;15.33;;;3.70;99.90;;;;;;5050270;28;20202;-59
2022/12/07 08:26:00;;;;;;;26.80;14.47;;;3.70;99.90;;;;;;5050251;28;20305;-58
2022/12/07 08:28:27;;;;;;;29.97;15.27;;;3.70;99.90;;;;;;5050193;28;20208;-60
2022/12/07 08:30:59;;;;;;;29.27;14.77;;;3.70;99.90;;;;;;5050640;28;20215;-56
2022/12/07 08:33:25;;;;;;;27.00;14.67;;;3.80;99.90;;;;;;5049841;28;20208;-58
2022/12/07 08:35:54;;;;;;;28.30;14.97;;;3.80;99.90;;;;;;5050341;28;20262;-60
2022/12/07 08:38:20;;;;;;;27.00;15.67;;;3.80;99.90;;;;;;5050433;28;20212;-58
2022/12/07 08:40:54;;;;;;;30.27;15.40;;;3.90;99.90;;;;;;5053978;28;20238;-59
2022/12/07 08:43:21;;;;;;;25.87;14.87;;;3.90;99.90;;;;;;5054153;28;20198;-60
2022/12/07 08:45:49;;;;;;;28.07;15.60;;;4.00;99.90;;;;;;5053093;28;20227;-61
2022/12/07 08:48:21;;;;;;;25.07;14.47;;;3.90;99.90;;;;;;5054275;28;20278;-60
2022/12/07 08:50:49;;;;;;;25.33;15.70;;;3.90;99.90;;;;;;5053824;28;20218;-57
2022/12/07 08:53:17;;;;;;;25.07;15.07;;;4.00;99.90;;;;;;5053857;28;20214;-59
2022/12/07 08:55:45;;;;;;;28.53;16.43;;;4.00;99.90;;;;;;5053463;28;20648;-59
2022/12/07 08:58:11;;;;;;;31.03;15.57;;;4.10;99.90;;;;;;5053765;28;20209;-54
2022/12/07 09:00:38;;;;;;;26.83;14.77;;;4.10;99.90;;;;;;5053712;28;20209;-55
2022/12/07 09:03:05;;;;;;;24.37;14.90;;;4.20;99.90;;;;;;5053438;28;20212;-63
2022/12/07 09:05:33;;;;;;;27.53;14.87;;;4.20;99.90;;;;;;5053568;28;20230;-59
2022/12/07 09:08:02;;;;;;;30.53;14.90;;;4.20;99.90;;;;;;5049211;28;20202;-60
2022/12/07 09:10:31;;;;;;;24.13;14.80;;;4.20;99.90;;;;;;5042040;28;20209;-60
2022/12/07 09:13:00;;;;;;;25.90;13.90;;;4.20;99.90;;;;;;5044405;28;20545;-59
2022/12/07 09:15:27;;;;;;;25.20;13.80;;;4.20;99.90;;;;;;5044431;28;20215;-59
2022/12/07 09:17:54;;;;;;;22.57;13.90;;;4.30;99.90;;;;;;5049670;28;20303;-58
2022/12/07 09:20:20;;;;;;;25.17;13.83;;;4.30;99.90;;;;;;5041714;28;20271;-58
2022/12/07 09:22:47;;;;;;;30.13;14.60;;;4.20;99.90;;;;;;5052114;28;20215;-58
2022/12/07 09:25:14;;;;;;;26.80;14.10;;;4.20;99.90;;;;;;5052718;28;20232;-59
2022/12/07 09:27:42;;;;;;;22.53;13.40;;;4.30;99.90;;;;;;5053242;28;20212;-58
2022/12/07 09:30:09;;;;;;;27.00;14.50;;;4.20;99.90;;;;;;5053257;28;20213;-56
2022/12/07 09:32:36;;;;;;;28.57;14.27;;;4.30;99.90;;;;;;5053683;28;20202;-57
2022/12/07 09:35:04;;;;;;;23.37;14.40;;;4.40;99.90;;;;;;5053017;28;20586;-59
2022/12/07 09:37:34;;;;;;;25.67;15.27;;;4.40;99.90;;;;;;5053186;28;20575;-57
2022/12/07 09:40:01;;;;;;;27.13;15.40;;;4.50;99.90;;;;;;5052875;28;20205;-59
2022/12/07 09:42:32;;;;;;;30.57;15.20;;;4.50;99.90;;;;;;5053167;28;20234;-58
2022/12/07 09:45:01;;;;;;;31.50;15.03;;;4.50;99.90;;;;;;5052900;28;20225;-58
2022/12/07 09:47:29;;;;;;;25.17;13.60;;;4.50;99.90;;;;;;5052512;28;20236;-60
2022/12/07 09:50:03;;;;;;;23.10;13.83;;;4.50;99.90;;;;;;5052497;28;20619;-59
2022/12/07 09:52:31;;;;;;;25.03;14.40;;;4.60;99.90;;;;;;5051796;28;20205;-60
2022/12/07 09:54:58;;;;;;;26.27;15.30;;;4.60;99.90;;;;;;5052526;28;20234;-60
2022/12/07 09:57:29;;;;;;;27.30;15.00;;;4.60;99.90;;;;;;5052339;28;20233;-60
2022/12/07 10:00:00;;;;;;;27.60;13.77;;;4.50;99.90;;;;;;5052936;28;20208;-58
2022/12/07 10:02:36;;;;;;;29.43;14.83;;;4.50;99.90;;;;;;5052733;28;20209;-59
2022/12/07 10:05:05;;;;;;;25.00;15.20;;;4.60;99.90;;;;;;5052436;28;20214;-65
2022/12/07 10:07:32;;;;;;;27.00;14.10;;;4.70;99.90;;;;;;5052507;28;20306;-61
2022/12/07 10:09:59;;;;;;;25.00;13.83;;;4.70;99.90;;;;;;5052252;28;20347;-63
2022/12/07 10:12:26;;;;;;;24.77;13.97;;;4.80;99.90;;;;;;5052608;28;20198;-64
2022/12/07 10:15:00;;;;;;;22.67;12.10;;;4.90;99.90;;;;;;5051658;28;20212;-63
2022/12/07 10:17:36;;;;;;;24.47;13.53;;;4.80;99.90;;;;;;5052096;28;20321;-58
2022/12/07 10:20:22;;;;;;;21.43;12.90;;;4.90;99.90;;;;;;5052023;28;20733;-58
2022/12/07 10:23:14;;;;;;;22.30;12.87;;;4.90;99.90;;;;;;5052575;28;20635;-60
2022/12/07 10:25:42;;;;;;;21.27;11.93;;;4.90;99.90;;;;;;5051419;28;20238;-61
2022/12/07 10:28:15;;;;;;;21.93;11.43;;;4.90;99.90;;;;;;5053706;28;20216;-60
2022/12/07 10:30:51;;;;;;;16.90;10.90;;;4.90;99.90;;;;;;5051866;28;20209;-62
2022/12/07 10:33:31;;;;;;;25.07;12.67;;;5.00;99.90;;;;;;5052533;28;20793;-60
2022/12/07 10:35:58;;;;;;;27.13;11.67;;;5.00;99.90;;;;;;5051615;28;20355;-61
2022/12/07 10:38:26;;;;;;;20.67;10.73;;;5.10;99.90;;;;;;5051875;28;20639;-62
2022/12/07 10:41:05;;;;;;;17.23;10.43;;;5.10;99.90;;;;;;5052494;28;20295;-58
2022/12/07 10:43:32;;;;;;;23.30;10.60;;;5.10;99.90;;;;;;5051454;28;20668;-63
2022/12/07 10:46:29;;;;;;;17.23;9.73;;;5.10;99.90;;;;;;5051294;28;20255;-63
2022/12/07 10:49:10;;;;;;;18.00;10.00;;;5.20;99.90;;;;;;5039948;28;20324;-64
2022/12/07 10:51:43;;;;;;;15.03;10.03;;;5.30;99.90;;;;;;5048790;28;20197;-64
2022/12/07 10:54:18;;;;;;;21.27;9.90;;;5.40;99.90;;;;;;5043162;28;20190;-65
2022/12/07 10:57:12;;;;;;;16.27;9.47;;;5.40;99.90;;;;;;5043728;28;20221;-65
2022/12/07 10:59:56;;;;;;;16.40;8.60;;;5.50;99.90;;;;;;5042947;28;20202;-60
2022/12/07 11:02:49;;;;;;;16.50;8.63;;;5.50;99.90;;;;;;5039683;28;20194;-61
2022/12/07 11:05:26;;;;;;;15.50;8.03;;;5.50;99.90;;;;;;5031008;28;20215;-61
2022/12/07 11:08:04;;;;;;;16.80;7.97;;;5.40;99.90;;;;;;5031549;28;20673;-61
2022/12/07 11:10:42;;;;;;;14.00;7.23;;;5.40;99.90;;;;;;5031600;28;20190;-59
2022/12/07 11:13:28;;;;;;;15.50;7.00;;;5.40;99.90;;;;;;5044739;28;20200;-58
2022/12/07 11:16:11;;;;;;;11.07;7.73;;;5.40;99.90;;;;;;5042101;28;20228;-60
2022/12/07 11:18:51;;;;;;;13.17;7.10;;;5.40;99.90;;;;;;5051584;28;20678;-59
2022/12/07 11:21:25;;;;;;;15.23;8.40;;;5.30;99.90;;;;;;5050900;28;20209;-59
2022/12/07 11:24:04;;;;;;;13.53;7.73;;;5.30;99.90;;;;;;5051427;28;20312;-60
2022/12/07 11:26:47;;;;;;;16.57;8.13;;;5.40;99.90;;;;;;5050456;28;20229;-60
2022/12/07 11:29:33;;;;;;;13.73;8.57;;;5.40;99.90;;;;;;5051653;28;20194;-61
2022/12/07 11:32:12;;;;;;;15.80;7.17;;;5.50;99.90;;;;;;5051057;28;20263;-61
2022/12/07 11:34:47;;;;;;;14.00;7.90;;;5.60;99.90;;;;;;5050887;28;20258;-61
2022/12/07 11:37:20;;;;;;;14.43;7.73;;;5.60;99.90;;;;;;5050601;28;20316;-61
2022/12/07 11:39:52;;;;;;;14.20;7.80;;;5.60;99.90;;;;;;5050956;28;20181;-61
2022/12/07 11:42:23;;;;;;;15.47;8.10;;;5.50;99.90;;;;;;5051404;28;20209;-60
2022/12/07 11:44:54;;;;;;;17.07;7.87;;;5.50;99.90;;;;;;5049464;28;20694;-59
2022/12/07 11:47:27;;;;;;;15.93;9.00;;;5.60;99.90;;;;;;5050952;28;20233;-57
2022/12/07 11:49:58;;;;;;;14.00;8.20;;;5.70;99.90;;;;;;5050553;28;20240;-56
2022/12/07 11:52:33;;;;;;;14.90;8.43;;;5.80;99.90;;;;;;5050772;28;20647;-59
2022/12/07 11:55:03;;;;;;;12.20;7.27;;;6.00;99.90;;;;;;5042148;28;20197;-59
2022/12/07 11:57:38;;;;;;;16.70;8.37;;;6.00;99.90;;;;;;5050525;28;20241;-61
2022/12/07 12:00:13;;;;;;;16.43;8.23;;;6.00;99.90;;;;;;5050422;28;20737;-60
2022/12/07 12:02:45;;;;;;;13.63;7.87;;;6.00;99.90;;;;;;5051467;28;20213;-58
2022/12/07 12:05:20;;;;;;;14.90;8.57;;;6.00;99.90;;;;;;5050573;28;20229;-59
2022/12/07 12:07:54;;;;;;;17.80;8.87;;;6.00;99.90;;;;;;5050147;28;20205;-61
2022/12/07 12:10:27;;;;;;;13.27;7.43;;;6.00;99.90;;;;;;5051037;28;20201;-59
2022/12/07 12:13:25;;;;;;;15.83;7.70;;;5.90;99.90;;;;;;5047637;28;20586;-61
2022/12/07 12:16:10;;;;;;;10.13;7.27;;;5.90;99.90;;;;;;5044748;28;20234;-58
2022/12/07 12:18:58;;;;;;;13.43;8.40;;;5.90;99.90;;;;;;5045794;28;20236;-61
2022/12/07 12:21:29;;;;;;;13.83;8.33;;;5.90;99.90;;;;;;5046143;28;20205;-57
2022/12/07 12:24:01;;;;;;;19.87;9.43;;;5.80;99.90;;;;;;5042554;28;20290;-56
2022/12/07 12:26:31;;;;;;;21.20;8.80;;;5.80;99.90;;;;;;5041271;28;20225;-60
2022/12/07 12:29:00;;;;;;;17.37;8.70;;;5.80;99.90;;;;;;5045552;28;20194;-62
2022/12/07 12:31:36;;;;;;;13.57;8.90;;;5.80;99.90;;;;;;5040861;28;20243;-60
2022/12/07 12:34:05;;;;;;;13.30;8.80;;;5.70;99.90;;;;;;5053473;28;20197;-60
2022/12/07 12:36:47;;;;;;;15.53;8.63;;;5.70;99.90;;;;;;5044829;28;20222;-60
2022/12/07 12:39:18;;;;;;;13.07;8.27;;;5.70;99.90;;;;;;5033166;28;20202;-62
2022/12/07 12:42:08;;;;;;;16.07;8.00;;;5.70;99.90;;;;;;5042059;28;20201;-62
2022/12/07 12:45:03;;;;;;;11.50;6.60;;;5.70;99.90;;;;;;5053264;28;20721;-57
2022/12/07 12:47:57;;;;;;;15.37;6.10;;;5.70;99.90;;;;;;5045825;28;20230;-60
2022/12/07 12:50:30;;;;;;;10.23;5.97;;;5.70;99.90;;;;;;5049017;28;20202;-60
2022/12/07 12:53:00;;;;;;;10.17;6.30;;;5.70;99.90;;;;;;5045062;28;20208;-60
2022/12/07 12:56:10;;;;;;;13.63;5.47;;;5.80;99.90;;;;;;5044937;28;20708;-60
2022/12/07 12:58:40;;;;;;;13.83;6.07;;;5.90;99.90;;;;;;5034058;28;20206;-62